createdAt,value
2023-03-17T00:00:45.512Z,61.57
2023-03-17T00:03:29.522Z,61.61
2023-03-17T00:05:59.977Z,61.51
2023-03-17T00:08:32.714Z,61.62
2023-03-17T00:11:02.502Z,61.21
2023-03-17T00:13:32.271Z,61.35
2023-03-17T00:16:03.408Z,61.77
2023-03-17T00:18:35.612Z,61.69
2023-03-17T00:21:05.038Z,61.54
2023-03-17T00:23:35.421Z,61.49
2023-03-17T00:26:04.216Z,61.49
2023-03-17T00:28:35.446Z,62.09
2023-03-17T00:31:13.633Z,61.95
2023-03-17T00:33:46.676Z,62.00
2023-03-17T00:36:18.971Z,61.94
2023-03-17T00:38:48.781Z,61.66
2023-03-17T00:41:18.411Z,61.50
2023-03-17T00:43:47.629Z,61.51
2023-03-17T00:46:20.091Z,61.68
2023-03-17T00:48:51.324Z,62.27
2023-03-17T00:51:21.283Z,62.54
2023-03-17T00:53:50.833Z,63.52
2023-03-17T00:56:22.462Z,62.93
2023-03-17T00:58:52.271Z,63.22
2023-03-17T01:01:21.373Z,63.41
2023-03-17T01:03:52.882Z,64.53
2023-03-17T01:06:22.322Z,63.31
2023-03-17T01:08:52.392Z,62.64
2023-03-17T01:11:22.820Z,62.55
2023-03-17T01:13:52.820Z,62.30
2023-03-17T01:16:22.621Z,62.37
2023-03-17T01:18:56.090Z,62.05
2023-03-17T01:21:25.477Z,62.08
2023-03-17T01:23:55.130Z,62.02
2023-03-17T01:26:26.033Z,61.87
2023-03-17T01:28:55.560Z,61.93
2023-03-17T01:31:26.461Z,61.97
2023-03-17T01:33:57.286Z,61.81
2023-03-17T01:36:26.515Z,61.69
2023-03-17T01:38:55.838Z,61.79
2023-03-17T01:41:25.124Z,61.56
2023-03-17T01:43:54.474Z,61.50
2023-03-17T01:46:29.651Z,61.52
2023-03-17T01:49:09.537Z,61.51
2023-03-17T01:51:44.632Z,61.52
2023-03-17T01:54:18.317Z,61.50
2023-03-17T01:56:51.782Z,61.51
2023-03-17T01:59:27.230Z,61.40
2023-03-17T02:02:02.966Z,61.24
2023-03-17T02:04:35.005Z,61.48
2023-03-17T02:07:05.364Z,61.20
2023-03-17T02:09:35.634Z,61.35
2023-03-17T02:12:05.333Z,61.16
2023-03-17T02:14:34.914Z,61.32
2023-03-17T02:17:04.737Z,61.33
2023-03-17T02:19:35.802Z,61.46
2023-03-17T02:22:06.339Z,61.58
2023-03-17T02:24:39.021Z,61.41
2023-03-17T02:27:13.516Z,61.43
2023-03-17T02:29:46.536Z,61.42
2023-03-17T02:32:21.738Z,61.53
2023-03-17T02:34:51.420Z,61.50
2023-03-17T02:37:21.968Z,61.33
2023-03-17T02:39:51.375Z,61.53
2023-03-17T02:42:20.415Z,61.56
2023-03-17T02:44:50.746Z,61.49
2023-03-17T02:47:21.695Z,61.58
2023-03-17T02:49:51.845Z,61.66
2023-03-17T02:52:22.511Z,61.69
2023-03-17T02:54:52.247Z,61.69
2023-03-17T02:57:21.488Z,61.54
2023-03-17T02:59:50.808Z,61.63
2023-03-17T03:02:19.981Z,61.51
2023-03-17T03:04:50.450Z,61.65
2023-03-17T03:07:19.411Z,61.62
2023-03-17T03:09:50.302Z,61.89
2023-03-17T03:12:19.620Z,61.75
2023-03-17T03:14:49.014Z,61.91
2023-03-17T03:17:18.488Z,61.79
2023-03-17T03:19:48.596Z,61.73
2023-03-17T03:22:17.702Z,61.81
2023-03-17T03:24:47.289Z,61.96
2023-03-17T03:27:18.031Z,61.95
2023-03-17T03:29:47.769Z,61.83
2023-03-17T03:32:17.136Z,61.82
2023-03-17T03:34:47.002Z,61.82
2023-03-17T03:37:16.424Z,61.92
2023-03-17T03:39:45.857Z,61.97
2023-03-17T03:42:16.622Z,62.04
2023-03-17T03:44:46.028Z,61.93
2023-03-17T03:47:15.098Z,62.00
2023-03-17T03:49:44.550Z,61.97
2023-03-17T03:52:13.537Z,61.95
2023-03-17T03:54:43.193Z,61.95
2023-03-17T03:57:12.694Z,61.78
2023-03-17T03:59:43.860Z,62.00
2023-03-17T04:02:13.142Z,62.14
2023-03-17T04:04:42.812Z,62.09
2023-03-17T04:07:12.668Z,62.09
2023-03-17T04:09:42.634Z,62.04
2023-03-17T04:12:12.392Z,62.11
2023-03-17T04:14:44.615Z,62.05
2023-03-17T04:17:14.084Z,62.22
2023-03-17T04:19:43.506Z,62.21
2023-03-17T04:22:13.460Z,62.46
2023-03-17T04:24:42.910Z,62.26
2023-03-17T04:27:12.416Z,62.16
2023-03-17T04:29:43.969Z,62.22
2023-03-17T04:32:15.010Z,62.24
2023-03-17T04:34:45.012Z,62.36
2023-03-17T04:37:15.266Z,62.28
2023-03-17T04:39:44.692Z,62.24
2023-03-17T04:42:14.036Z,62.34
2023-03-17T04:44:44.902Z,62.38
2023-03-17T04:47:14.153Z,62.41
2023-03-17T04:49:43.655Z,62.29
2023-03-17T04:52:13.049Z,62.28
2023-03-17T04:54:42.596Z,62.41
2023-03-17T04:57:12.002Z,62.35
2023-03-17T04:59:41.489Z,62.51
2023-03-17T05:02:12.464Z,62.42
2023-03-17T05:04:42.147Z,62.63
2023-03-17T05:07:11.310Z,62.54
2023-03-17T05:09:40.682Z,62.55
2023-03-17T05:12:10.989Z,62.59
2023-03-17T05:14:40.565Z,62.52
2023-03-17T05:17:11.591Z,62.64
2023-03-17T05:19:41.031Z,62.62
2023-03-17T05:22:10.214Z,62.63
2023-03-17T05:24:40.850Z,62.77
2023-03-17T05:27:10.051Z,62.63
2023-03-17T05:29:39.689Z,62.68
2023-03-17T05:32:09.098Z,62.71
2023-03-17T05:34:40.088Z,62.80
2023-03-17T05:37:10.332Z,62.89
2023-03-17T05:39:39.921Z,62.80
2023-03-17T05:42:09.302Z,62.87
2023-03-17T05:44:38.711Z,63.01
2023-03-17T05:47:08.538Z,62.86
2023-03-17T05:49:39.348Z,62.91
2023-03-17T05:52:08.955Z,62.96
2023-03-17T05:54:38.805Z,63.09
2023-03-17T05:57:08.005Z,63.12
2023-03-17T05:59:37.514Z,63.27
2023-03-17T06:02:06.813Z,63.09
2023-03-17T06:04:36.459Z,63.16
2023-03-17T06:07:07.419Z,63.31
2023-03-17T06:09:37.212Z,63.26
2023-03-17T06:12:06.940Z,63.21
2023-03-17T06:14:36.731Z,63.36
2023-03-17T06:17:06.385Z,63.21
2023-03-17T06:19:36.869Z,63.45
2023-03-17T06:22:07.435Z,63.16
2023-03-17T06:24:37.227Z,63.48
2023-03-17T06:27:06.446Z,63.53
2023-03-17T06:29:35.976Z,63.79
2023-03-17T06:32:19.523Z,64.44
2023-03-17T06:34:50.062Z,64.45
2023-03-17T06:37:21.384Z,65.03
2023-03-17T06:39:50.769Z,65.92
2023-03-17T06:42:20.198Z,64.93
2023-03-17T06:44:52.347Z,65.68
2023-03-17T06:47:23.037Z,65.48
2023-03-17T06:49:53.868Z,65.19
2023-03-17T06:52:24.317Z,66.70
2023-03-17T06:54:54.167Z,65.24
2023-03-17T06:57:23.667Z,64.81
2023-03-17T06:59:52.969Z,64.77
2023-03-17T07:02:23.046Z,64.90
2023-03-17T07:04:53.500Z,64.81
2023-03-17T07:07:25.616Z,64.85
2023-03-17T07:09:55.229Z,64.79
2023-03-17T07:12:24.325Z,64.90
2023-03-17T07:14:54.511Z,64.97
2023-03-17T07:17:23.957Z,64.92
2023-03-17T07:19:53.532Z,65.72
2023-03-17T07:22:24.081Z,65.44
2023-03-17T07:24:53.493Z,65.41
2023-03-17T07:27:25.450Z,65.68
2023-03-17T07:29:55.038Z,66.04
2023-03-17T07:32:24.746Z,65.68
2023-03-17T07:34:54.724Z,65.78
2023-03-17T07:37:26.764Z,67.32
2023-03-17T07:39:56.284Z,66.53
2023-03-17T07:42:25.380Z,66.49
2023-03-17T07:44:54.908Z,67.01
2023-03-17T07:47:23.960Z,66.51
2023-03-17T07:49:53.522Z,66.52
2023-03-17T07:52:22.716Z,66.33
2023-03-17T07:54:54.036Z,66.30
2023-03-17T07:57:23.503Z,66.65
2023-03-17T07:59:52.957Z,66.55
2023-03-17T08:02:22.524Z,67.44
2023-03-17T08:04:52.302Z,67.00
2023-03-17T08:07:22.643Z,67.23
2023-03-17T08:09:54.072Z,67.21
2023-03-17T08:12:23.411Z,67.08
2023-03-17T08:14:52.716Z,67.16
2023-03-17T08:17:21.805Z,67.28
2023-03-17T08:19:51.435Z,67.22
2023-03-17T08:22:20.616Z,67.86
2023-03-17T08:24:50.022Z,67.55
2023-03-17T08:27:21.639Z,67.35
2023-03-17T08:29:51.509Z,67.55
2023-03-17T08:32:20.831Z,67.53
2023-03-17T08:34:53.703Z,67.76
2023-03-17T08:37:24.765Z,67.73
2023-03-17T08:39:53.986Z,67.65
2023-03-17T08:42:24.649Z,67.52
2023-03-17T08:44:54.287Z,67.33
2023-03-17T08:47:23.587Z,67.74
2023-03-17T08:49:53.368Z,67.77
2023-03-17T08:52:22.622Z,67.61
2023-03-17T08:54:54.732Z,67.04
2023-03-17T08:57:25.925Z,67.48
2023-03-17T08:59:55.887Z,67.66
2023-03-17T09:02:25.067Z,67.79
2023-03-17T09:04:54.463Z,67.35
2023-03-17T09:07:23.529Z,67.32
2023-03-17T09:09:53.163Z,67.82
2023-03-17T09:12:22.475Z,67.49
2023-03-17T09:14:53.494Z,67.50
2023-03-17T09:17:22.826Z,67.94
2023-03-17T09:19:52.398Z,67.45
2023-03-17T09:22:21.833Z,67.54
2023-03-17T09:24:51.402Z,67.50
2023-03-17T09:27:21.012Z,67.52
2023-03-17T09:29:50.506Z,67.59
2023-03-17T09:32:21.231Z,67.54
2023-03-17T09:34:51.726Z,67.54
2023-03-17T09:37:21.425Z,67.06
2023-03-17T09:39:51.331Z,67.18
2023-03-17T09:42:36.508Z,67.14
2023-03-17T09:45:19.989Z,67.10
2023-03-17T09:48:12.339Z,66.76
2023-03-17T09:50:49.989Z,66.93
2023-03-17T09:53:22.880Z,66.53
2023-03-17T09:55:58.013Z,66.07
2023-03-17T09:58:32.272Z,65.74
2023-03-17T10:01:05.205Z,65.27
2023-03-17T10:03:37.723Z,65.16
2023-03-17T10:06:35.057Z,65.07
2023-03-17T10:09:26.210Z,64.59
2023-03-17T10:12:07.628Z,64.42
2023-03-17T10:14:55.730Z,64.17
2023-03-17T10:17:31.753Z,64.45
2023-03-17T10:20:10.605Z,64.39
2023-03-17T10:22:46.244Z,63.69
2023-03-17T10:25:17.788Z,63.95
2023-03-17T10:27:52.228Z,64.28
2023-03-17T10:30:23.769Z,63.67
2023-03-17T10:32:56.459Z,63.66
2023-03-17T10:35:28.044Z,63.89
2023-03-17T10:38:13.485Z,63.60
2023-03-17T10:40:45.457Z,63.41
2023-03-17T10:43:20.630Z,62.51
2023-03-17T10:46:00.138Z,63.20
2023-03-17T10:48:32.361Z,63.27
2023-03-17T10:51:09.280Z,63.11
2023-03-17T10:53:43.446Z,62.28
2023-03-17T10:56:23.606Z,62.07
2023-03-17T10:58:55.554Z,60.96
2023-03-17T11:01:31.140Z,60.88
2023-03-17T11:04:03.931Z,61.00
2023-03-17T11:06:39.394Z,60.30
2023-03-17T11:09:12.539Z,60.67
2023-03-17T11:11:47.383Z,59.96
2023-03-17T11:14:18.741Z,60.70
2023-03-17T11:16:55.678Z,59.75
2023-03-17T11:19:32.856Z,59.83
2023-03-17T11:22:11.843Z,60.35
2023-03-17T11:24:52.882Z,59.68
2023-03-17T11:27:31.709Z,60.21
2023-03-17T11:30:26.574Z,59.51
2023-03-17T11:33:01.061Z,59.46
2023-03-17T11:35:51.602Z,59.21
2023-03-17T11:38:26.038Z,59.90
2023-03-17T11:41:24.356Z,58.25
2023-03-17T11:44:05.811Z,58.76
2023-03-17T11:46:43.639Z,59.70
2023-03-17T11:49:16.058Z,59.35
2023-03-17T11:51:57.262Z,57.79
2023-03-17T11:54:37.507Z,58.59
2023-03-17T11:57:11.271Z,57.80
2023-03-17T11:59:46.561Z,58.42
2023-03-17T12:02:24.398Z,57.55
2023-03-17T12:04:58.367Z,58.53
2023-03-17T12:07:31.685Z,57.78
2023-03-17T12:10:11.679Z,57.19
2023-03-17T12:12:48.310Z,57.25
2023-03-17T12:15:26.777Z,57.71
2023-03-17T12:18:00.557Z,57.52
2023-03-17T12:20:35.056Z,56.80
2023-03-17T12:23:12.224Z,57.62
2023-03-17T12:25:51.048Z,56.64
2023-03-17T12:28:24.551Z,57.20
2023-03-17T12:31:01.816Z,57.02
2023-03-17T12:33:40.117Z,56.17
2023-03-17T12:36:14.850Z,56.72
2023-03-17T12:38:47.595Z,56.81
2023-03-17T12:41:43.791Z,54.75
2023-03-17T12:44:27.747Z,55.83
2023-03-17T12:47:31.812Z,54.75
2023-03-17T12:53:49.210Z,56.19
2023-03-17T12:56:27.540Z,55.48
2023-03-17T12:59:07.064Z,54.74
2023-03-17T13:01:43.238Z,54.90
2023-03-17T13:04:27.153Z,54.77
2023-03-17T13:07:08.854Z,55.26
2023-03-17T13:09:56.225Z,54.99
2023-03-17T13:12:58.715Z,53.90
2023-03-17T13:16:08.119Z,54.39
2023-03-17T13:18:53.452Z,54.59
2023-03-17T13:21:26.509Z,54.89
2023-03-17T13:23:59.170Z,54.17
2023-03-17T13:26:55.584Z,52.16
2023-03-17T13:29:39.836Z,54.06
2023-03-17T13:32:49.304Z,53.80
2023-03-17T13:35:29.142Z,53.69
2023-03-17T13:38:35.777Z,53.16
2023-03-17T13:41:33.102Z,54.02
2023-03-17T13:44:20.954Z,52.61
2023-03-17T13:46:55.243Z,54.15
2023-03-17T13:49:30.627Z,53.96
2023-03-17T13:52:09.769Z,53.93
2023-03-17T13:54:48.438Z,52.72
2023-03-17T13:57:28.097Z,52.29
2023-03-17T14:00:05.223Z,53.11
2023-03-17T14:02:41.115Z,53.13
2023-03-17T14:05:19.375Z,52.90
2023-03-17T14:07:57.436Z,51.80
2023-03-17T14:10:29.765Z,53.31
2023-03-17T14:13:04.528Z,51.58
2023-03-17T14:15:42.225Z,52.36
2023-03-17T14:18:18.523Z,52.49
2023-03-17T14:20:58.782Z,54.03
2023-03-17T14:23:31.146Z,52.04
2023-03-17T14:26:04.815Z,52.51
2023-03-17T14:28:36.057Z,52.36
2023-03-17T14:31:07.813Z,52.34
2023-03-17T14:33:41.854Z,52.05
2023-03-17T14:36:15.648Z,50.39
2023-03-17T14:38:50.458Z,50.22
2023-03-17T14:41:22.753Z,51.49
2023-03-17T14:43:54.469Z,52.84
2023-03-17T14:46:27.941Z,51.13
2023-03-17T14:49:03.023Z,50.54
2023-03-17T14:51:38.258Z,51.22
2023-03-17T14:54:17.268Z,51.43
2023-03-17T14:57:01.633Z,51.83
2023-03-17T14:59:36.259Z,51.10
2023-03-17T15:02:18.644Z,50.50
2023-03-17T15:04:55.336Z,50.60
2023-03-17T15:07:33.720Z,49.01
2023-03-17T15:10:05.935Z,48.57
2023-03-17T15:12:38.035Z,51.85
2023-03-17T15:15:18.952Z,51.15
2023-03-17T15:17:52.498Z,51.17
2023-03-17T15:20:23.815Z,51.28
2023-03-17T15:22:59.603Z,50.20
2023-03-17T15:25:35.657Z,51.63
2023-03-17T15:28:13.475Z,51.86
2023-03-17T15:30:47.498Z,50.98
2023-03-17T15:33:23.185Z,50.36
2023-03-17T15:35:54.041Z,50.90
2023-03-17T15:38:23.320Z,52.11
2023-03-17T15:40:52.755Z,51.74
2023-03-17T15:43:23.664Z,51.20
2023-03-17T15:45:59.287Z,52.65
2023-03-17T15:48:31.824Z,52.39
2023-03-17T15:51:04.912Z,52.53
2023-03-17T15:53:34.643Z,51.89
2023-03-17T15:56:04.006Z,52.80
2023-03-17T15:58:35.966Z,51.57
2023-03-17T16:01:06.483Z,52.39
2023-03-17T16:03:38.104Z,52.27
2023-03-17T16:06:16.902Z,52.24
2023-03-17T16:08:46.506Z,52.77
2023-03-17T16:11:19.162Z,52.77
2023-03-17T16:13:51.083Z,53.17
2023-03-17T16:16:24.841Z,53.08
2023-03-17T16:18:54.154Z,53.05
2023-03-17T16:21:25.924Z,53.26
2023-03-17T16:23:55.782Z,53.26
2023-03-17T16:26:25.093Z,52.73
2023-03-17T16:28:59.194Z,53.23
2023-03-17T16:31:38.897Z,52.87
2023-03-17T16:34:17.904Z,53.58
2023-03-17T16:36:50.411Z,52.95
2023-03-17T16:39:21.340Z,53.29
2023-03-17T16:41:52.137Z,52.98
2023-03-17T16:44:23.629Z,53.36
2023-03-17T16:46:53.103Z,53.68
2023-03-17T16:49:23.798Z,53.62
2023-03-17T16:51:54.638Z,53.72
2023-03-17T16:54:23.724Z,53.83
2023-03-17T16:56:53.160Z,53.80
2023-03-17T16:59:24.509Z,53.89
2023-03-17T17:01:54.988Z,53.70
2023-03-17T17:04:24.893Z,53.93
2023-03-17T17:06:56.744Z,54.06
2023-03-17T17:09:28.661Z,54.08
2023-03-17T17:11:58.774Z,53.93
2023-03-17T17:14:27.958Z,54.25
2023-03-17T17:16:57.531Z,53.90
2023-03-17T17:19:26.526Z,54.26
2023-03-17T17:21:57.984Z,54.05
2023-03-17T17:24:27.289Z,54.21
2023-03-17T17:26:56.890Z,53.71
2023-03-17T17:29:26.155Z,54.26
2023-03-17T17:31:58.335Z,54.05
2023-03-17T17:34:27.525Z,54.18
2023-03-17T17:36:58.800Z,53.83
2023-03-17T17:39:28.031Z,54.03
2023-03-17T17:41:57.330Z,54.23
2023-03-17T17:44:26.561Z,54.28
2023-03-17T17:46:55.953Z,54.30
2023-03-17T17:49:27.200Z,54.28
2023-03-17T17:51:58.143Z,54.46
2023-03-17T17:54:27.432Z,54.61
2023-03-17T17:56:56.707Z,54.55
2023-03-17T17:59:27.004Z,54.77
2023-03-17T18:01:59.892Z,54.88
2023-03-17T18:04:29.228Z,54.72
2023-03-17T18:07:00.054Z,54.89
2023-03-17T18:09:32.892Z,54.96
2023-03-17T18:12:03.064Z,54.80
2023-03-17T18:14:32.224Z,55.27
2023-03-17T18:17:01.964Z,55.06
2023-03-17T18:19:31.246Z,55.13
2023-03-17T18:22:02.418Z,55.22
2023-03-17T18:24:32.105Z,55.46
2023-03-17T18:27:03.867Z,55.27
2023-03-17T18:29:33.200Z,55.34
2023-03-17T18:32:06.067Z,55.45
2023-03-17T18:34:40.759Z,55.56
2023-03-17T18:37:13.885Z,55.65
2023-03-17T18:39:52.489Z,55.72
2023-03-17T18:42:30.503Z,55.72
2023-03-17T18:45:01.475Z,55.77
2023-03-17T18:47:36.621Z,55.73
2023-03-17T18:50:09.073Z,55.86
2023-03-17T18:52:44.953Z,55.94
2023-03-17T18:55:21.440Z,55.97
2023-03-17T18:57:58.079Z,56.05
2023-03-17T19:00:34.371Z,56.09
2023-03-17T19:03:09.944Z,56.25
2023-03-17T19:05:40.319Z,56.36
2023-03-17T19:08:17.978Z,56.33
2023-03-17T19:10:48.616Z,56.34
2023-03-17T19:13:19.308Z,56.39
2023-03-17T19:15:48.790Z,56.34
2023-03-17T19:18:18.866Z,56.54
2023-03-17T19:20:48.021Z,56.51
2023-03-17T19:23:21.324Z,56.48
2023-03-17T19:25:51.575Z,56.49
2023-03-17T19:28:21.938Z,56.55
2023-03-17T19:30:54.163Z,56.55
2023-03-17T19:33:24.162Z,56.59
2023-03-17T19:35:59.701Z,56.76
2023-03-17T19:38:31.288Z,56.62
2023-03-17T19:41:03.662Z,56.57
2023-03-17T19:43:41.288Z,56.74
2023-03-17T19:46:15.308Z,56.61
2023-03-17T19:48:45.529Z,56.66
2023-03-17T19:51:17.792Z,56.78
2023-03-17T19:53:50.807Z,56.87
2023-03-17T19:56:22.133Z,56.88
2023-03-17T19:58:52.580Z,57.06
2023-03-17T20:01:28.961Z,57.14
2023-03-17T20:03:59.412Z,57.05
2023-03-17T20:06:29.730Z,57.13
2023-03-17T20:09:01.079Z,57.24
2023-03-17T20:11:34.418Z,57.12
2023-03-17T20:14:08.040Z,57.10
2023-03-17T20:16:37.712Z,56.99
2023-03-17T20:19:08.316Z,57.07
2023-03-17T20:21:39.402Z,57.10
2023-03-17T20:24:14.633Z,57.18
2023-03-17T20:26:47.127Z,57.17
2023-03-17T20:29:18.260Z,57.24
2023-03-17T20:31:48.381Z,57.17
2023-03-17T20:34:18.652Z,57.40
2023-03-17T20:36:49.926Z,57.05
2023-03-17T20:39:21.517Z,57.44
2023-03-17T20:41:52.578Z,57.51
2023-03-17T20:44:25.435Z,57.66
2023-03-17T20:46:55.063Z,57.83
2023-03-17T20:49:31.005Z,57.60
2023-03-17T20:52:03.187Z,57.60
2023-03-17T20:54:37.776Z,57.57
2023-03-17T20:57:07.344Z,57.37
2023-03-17T20:59:37.392Z,57.53
2023-03-17T21:02:15.143Z,57.55
2023-03-17T21:04:49.032Z,57.68
2023-03-17T21:07:21.156Z,57.71
2023-03-17T21:09:56.455Z,57.66
2023-03-17T21:12:28.080Z,57.60
2023-03-17T21:15:01.729Z,57.65
2023-03-17T21:17:36.614Z,57.77
2023-03-17T21:20:09.640Z,57.65
2023-03-17T21:22:41.326Z,57.98
2023-03-17T21:25:13.553Z,57.81
2023-03-17T21:27:46.699Z,57.92
2023-03-17T21:30:17.945Z,58.00
2023-03-17T21:32:48.851Z,57.95
2023-03-17T21:35:18.633Z,57.95
2023-03-17T21:37:48.102Z,58.03
2023-03-17T21:40:23.629Z,58.21
2023-03-17T21:42:52.983Z,58.39
2023-03-17T21:45:25.993Z,58.22
2023-03-17T21:47:58.925Z,58.25
2023-03-17T21:50:29.176Z,58.27
2023-03-17T21:53:00.879Z,58.30
2023-03-17T21:55:35.902Z,58.37
2023-03-17T21:58:08.515Z,58.42
2023-03-17T22:00:45.202Z,58.38
2023-03-17T22:03:14.973Z,58.44
2023-03-17T22:05:47.189Z,58.43
2023-03-17T22:08:16.456Z,58.50
2023-03-17T22:10:47.220Z,58.45
2023-03-17T22:13:16.568Z,58.61
2023-03-17T22:15:46.132Z,58.66
2023-03-17T22:18:18.413Z,58.54
2023-03-17T22:20:47.854Z,58.67
2023-03-17T22:23:17.049Z,58.44
2023-03-17T22:25:47.857Z,58.38
2023-03-17T22:28:18.912Z,58.50
2023-03-17T22:30:49.254Z,58.48
2023-03-17T22:33:18.621Z,58.51
2023-03-17T22:35:48.074Z,58.34
2023-03-17T22:38:17.952Z,58.54
2023-03-17T22:40:48.736Z,58.50
2023-03-17T22:43:17.949Z,58.46
2023-03-17T22:45:48.615Z,58.42
2023-03-17T22:48:17.703Z,58.32
2023-03-17T22:50:46.982Z,58.36
2023-03-17T22:53:16.070Z,58.38
2023-03-17T22:55:47.645Z,58.19
2023-03-17T22:58:16.802Z,58.34
2023-03-17T23:00:47.809Z,58.37
2023-03-17T23:03:17.393Z,58.36
2023-03-17T23:05:48.042Z,58.58
2023-03-17T23:08:17.526Z,58.33
2023-03-17T23:10:50.273Z,58.46
2023-03-17T23:13:20.929Z,58.52
2023-03-17T23:15:51.244Z,58.65
2023-03-17T23:18:20.348Z,58.59
2023-03-17T23:20:49.798Z,58.28
2023-03-17T23:23:19.996Z,58.53
2023-03-17T23:25:51.998Z,58.55
2023-03-17T23:28:21.539Z,58.69
2023-03-17T23:30:51.175Z,58.51
2023-03-17T23:33:22.833Z,58.63
2023-03-17T23:35:52.896Z,58.65
2023-03-17T23:38:22.718Z,58.31
2023-03-17T23:40:56.740Z,58.49
2023-03-17T23:43:27.537Z,58.41
2023-03-17T23:45:56.930Z,58.36
2023-03-17T23:48:26.064Z,58.49
2023-03-17T23:50:55.758Z,58.35
2023-03-17T23:53:26.438Z,58.43
2023-03-17T23:56:00.056Z,58.44
2023-03-17T23:58:29.279Z,58.36
